sensor_id;sensor_type;location;lat;lon;timestamp;P1;durP1;ratioP1;P2;durP2;ratioP2
16510;SDS011;8368;48.772;8.754;2022-09-09T00:01:43;3.63;;;1.60;;
16510;SDS011;8368;48.772;8.754;2022-09-09T00:04:23;2.10;;;1.47;;
16510;SDS011;8368;48.772;8.754;2022-09-09T00:07:07;3.25;;;1.80;;
16510;SDS011;8368;48.772;8.754;2022-09-09T00:09:48;4.38;;;2.08;;
16510;SDS011;8368;48.772;8.754;2022-09-09T00:22:25;4.28;;;1.73;;
16510;SDS011;8368;48.772;8.754;2022-09-09T00:24:55;2.35;;;1.50;;
16510;SDS011;8368;48.772;8.754;2022-09-09T00:27:45;1.45;;;1.30;;
16510;SDS011;8368;48.772;8.754;2022-09-09T00:32:49;2.78;;;1.40;;
16510;SDS011;8368;48.772;8.754;2022-09-09T00:35:30;2.75;;;1.50;;
16510;SDS011;8368;48.772;8.754;2022-09-09T00:37:59;2.75;;;1.42;;
16510;SDS011;8368;48.772;8.754;2022-09-09T00:40:39;2.97;;;1.55;;
16510;SDS011;8368;48.772;8.754;2022-09-09T00:43:21;3.80;;;1.60;;
16510;SDS011;8368;48.772;8.754;2022-09-09T00:57:31;3.95;;;1.60;;
16510;SDS011;8368;48.772;8.754;2022-09-09T01:00:15;4.75;;;2.08;;
16510;SDS011;8368;48.772;8.754;2022-09-09T01:05:33;3.30;;;1.67;;
16510;SDS011;8368;48.772;8.754;2022-09-09T01:08:11;3.47;;;1.60;;
16510;SDS011;8368;48.772;8.754;2022-09-09T01:11:07;2.20;;;1.48;;
16510;SDS011;8368;48.772;8.754;2022-09-09T01:13:40;3.13;;;1.55;;
16510;SDS011;8368;48.772;8.754;2022-09-09T01:16:11;1.80;;;1.63;;
16510;SDS011;8368;48.772;8.754;2022-09-09T01:18:40;2.33;;;1.30;;
16510;SDS011;8368;48.772;8.754;2022-09-09T01:23:50;5.32;;;1.50;;
16510;SDS011;8368;48.772;8.754;2022-09-09T01:26:42;1.73;;;1.50;;
16510;SDS011;8368;48.772;8.754;2022-09-09T01:29:11;4.10;;;1.30;;
16510;SDS011;8368;48.772;8.754;2022-09-09T01:31:50;3.30;;;1.42;;
16510;SDS011;8368;48.772;8.754;2022-09-09T01:34:18;4.03;;;1.60;;
16510;SDS011;8368;48.772;8.754;2022-09-09T01:36:46;2.97;;;1.30;;
16510;SDS011;8368;48.772;8.754;2022-09-09T01:39:24;1.40;;;1.30;;
16510;SDS011;8368;48.772;8.754;2022-09-09T01:41:50;2.58;;;1.00;;
16510;SDS011;8368;48.772;8.754;2022-09-09T01:44:16;3.58;;;1.10;;
16510;SDS011;8368;48.772;8.754;2022-09-09T01:46:43;3.40;;;1.20;;
16510;SDS011;8368;48.772;8.754;2022-09-09T01:49:09;1.10;;;1.10;;
16510;SDS011;8368;48.772;8.754;2022-09-09T01:51:36;1.38;;;1.00;;
16510;SDS011;8368;48.772;8.754;2022-09-09T01:54:04;2.67;;;1.48;;
16510;SDS011;8368;48.772;8.754;2022-09-09T02:04:40;2.88;;;1.27;;
16510;SDS011;8368;48.772;8.754;2022-09-09T02:07:37;1.95;;;1.27;;
16510;SDS011;8368;48.772;8.754;2022-09-09T02:10:12;1.65;;;1.20;;
16510;SDS011;8368;48.772;8.754;2022-09-09T02:12:45;4.93;;;1.50;;
16510;SDS011;8368;48.772;8.754;2022-09-09T02:15:17;1.58;;;1.15;;
16510;SDS011;8368;48.772;8.754;2022-09-09T02:17:59;2.95;;;1.40;;
16510;SDS011;8368;48.772;8.754;2022-09-09T02:20:31;2.40;;;1.40;;
16510;SDS011;8368;48.772;8.754;2022-09-09T02:22:58;3.53;;;1.50;;
16510;SDS011;8368;48.772;8.754;2022-09-09T02:25:26;3.05;;;1.40;;
16510;SDS011;8368;48.772;8.754;2022-09-09T02:27:57;5.03;;;1.50;;
16510;SDS011;8368;48.772;8.754;2022-09-09T02:30:27;1.70;;;1.30;;
16510;SDS011;8368;48.772;8.754;2022-09-09T02:32:56;3.47;;;1.60;;
16510;SDS011;8368;48.772;8.754;2022-09-09T02:35:26;3.42;;;1.52;;
16510;SDS011;8368;48.772;8.754;2022-09-09T02:37:55;3.77;;;1.60;;
16510;SDS011;8368;48.772;8.754;2022-09-09T02:40:24;2.37;;;1.17;;
16510;SDS011;8368;48.772;8.754;2022-09-09T02:42:50;1.67;;;1.50;;
16510;SDS011;8368;48.772;8.754;2022-09-09T02:45:17;2.93;;;1.50;;
16510;SDS011;8368;48.772;8.754;2022-09-09T02:47:55;3.63;;;1.37;;
16510;SDS011;8368;48.772;8.754;2022-09-09T02:50:26;2.60;;;1.30;;
16510;SDS011;8368;48.772;8.754;2022-09-09T02:53:20;1.83;;;1.40;;
16510;SDS011;8368;48.772;8.754;2022-09-09T02:55:48;1.20;;;1.20;;
16510;SDS011;8368;48.772;8.754;2022-09-09T02:58:19;1.30;;;1.17;;
16510;SDS011;8368;48.772;8.754;2022-09-09T03:00:46;3.90;;;1.47;;
16510;SDS011;8368;48.772;8.754;2022-09-09T03:03:12;2.10;;;1.30;;
16510;SDS011;8368;48.772;8.754;2022-09-09T03:05:38;1.77;;;1.20;;
16510;SDS011;8368;48.772;8.754;2022-09-09T03:08:04;3.17;;;1.10;;
16510;SDS011;8368;48.772;8.754;2022-09-09T03:10:32;4.78;;;1.60;;
16510;SDS011;8368;48.772;8.754;2022-09-09T03:12:59;1.98;;;1.33;;
16510;SDS011;8368;48.772;8.754;2022-09-09T03:15:25;1.50;;;1.40;;
16510;SDS011;8368;48.772;8.754;2022-09-09T03:17:54;1.30;;;1.20;;
16510;SDS011;8368;48.772;8.754;2022-09-09T03:20:20;2.90;;;1.30;;
16510;SDS011;8368;48.772;8.754;2022-09-09T03:22:45;1.83;;;1.27;;
16510;SDS011;8368;48.772;8.754;2022-09-09T03:25:11;2.60;;;1.40;;
16510;SDS011;8368;48.772;8.754;2022-09-09T03:27:36;1.80;;;1.10;;
16510;SDS011;8368;48.772;8.754;2022-09-09T03:30:02;4.37;;;1.50;;
16510;SDS011;8368;48.772;8.754;2022-09-09T03:32:28;4.93;;;1.60;;
16510;SDS011;8368;48.772;8.754;2022-09-09T03:34:54;3.67;;;1.40;;
16510;SDS011;8368;48.772;8.754;2022-09-09T03:37:19;2.43;;;1.40;;
16510;SDS011;8368;48.772;8.754;2022-09-09T03:39:45;1.50;;;1.40;;
16510;SDS011;8368;48.772;8.754;2022-09-09T03:42:13;1.57;;;1.10;;
16510;SDS011;8368;48.772;8.754;2022-09-09T03:44:43;1.53;;;1.40;;
16510;SDS011;8368;48.772;8.754;2022-09-09T03:47:15;4.17;;;1.33;;
16510;SDS011;8368;48.772;8.754;2022-09-09T03:49:44;1.47;;;1.37;;
16510;SDS011;8368;48.772;8.754;2022-09-09T03:52:10;3.03;;;1.10;;
16510;SDS011;8368;48.772;8.754;2022-09-09T03:54:36;1.40;;;1.30;;
16510;SDS011;8368;48.772;8.754;2022-09-09T03:57:02;2.67;;;1.40;;
16510;SDS011;8368;48.772;8.754;2022-09-09T03:59:28;2.27;;;1.13;;
16510;SDS011;8368;48.772;8.754;2022-09-09T04:01:53;3.33;;;0.90;;
16510;SDS011;8368;48.772;8.754;2022-09-09T04:04:19;0.97;;;0.97;;
16510;SDS011;8368;48.772;8.754;2022-09-09T04:06:45;2.43;;;1.20;;
16510;SDS011;8368;48.772;8.754;2022-09-09T04:09:13;2.67;;;1.30;;
16510;SDS011;8368;48.772;8.754;2022-09-09T04:11:39;1.97;;;1.30;;
16510;SDS011;8368;48.772;8.754;2022-09-09T04:14:04;1.40;;;1.30;;
16510;SDS011;8368;48.772;8.754;2022-09-09T04:16:31;2.67;;;1.33;;
16510;SDS011;8368;48.772;8.754;2022-09-09T04:18:57;4.47;;;1.20;;
16510;SDS011;8368;48.772;8.754;2022-09-09T04:21:24;1.20;;;1.10;;
16510;SDS011;8368;48.772;8.754;2022-09-09T04:23:50;1.80;;;1.10;;
16510;SDS011;8368;48.772;8.754;2022-09-09T04:26:16;4.27;;;1.57;;
16510;SDS011;8368;48.772;8.754;2022-09-09T04:28:42;3.20;;;1.10;;
16510;SDS011;8368;48.772;8.754;2022-09-09T04:31:08;1.70;;;1.20;;
16510;SDS011;8368;48.772;8.754;2022-09-09T04:33:36;3.20;;;1.60;;
16510;SDS011;8368;48.772;8.754;2022-09-09T04:36:04;3.30;;;1.27;;
16510;SDS011;8368;48.772;8.754;2022-09-09T04:38:30;3.47;;;1.30;;
16510;SDS011;8368;48.772;8.754;2022-09-09T04:40:55;2.80;;;1.40;;
16510;SDS011;8368;48.772;8.754;2022-09-09T04:43:22;1.37;;;1.27;;
16510;SDS011;8368;48.772;8.754;2022-09-09T04:45:48;1.40;;;1.30;;
16510;SDS011;8368;48.772;8.754;2022-09-09T04:48:14;1.83;;;1.20;;
16510;SDS011;8368;48.772;8.754;2022-09-09T04:50:40;1.23;;;1.20;;
16510;SDS011;8368;48.772;8.754;2022-09-09T04:53:06;1.43;;;1.13;;
16510;SDS011;8368;48.772;8.754;2022-09-09T04:55:32;1.40;;;1.10;;
16510;SDS011;8368;48.772;8.754;2022-09-09T04:58:03;1.23;;;1.10;;
16510;SDS011;8368;48.772;8.754;2022-09-09T05:00:30;1.60;;;1.50;;
16510;SDS011;8368;48.772;8.754;2022-09-09T05:02:56;4.53;;;1.40;;
16510;SDS011;8368;48.772;8.754;2022-09-09T05:05:21;4.87;;;1.30;;
16510;SDS011;8368;48.772;8.754;2022-09-09T05:07:47;2.43;;;1.50;;
16510;SDS011;8368;48.772;8.754;2022-09-09T05:10:13;2.67;;;1.30;;
16510;SDS011;8368;48.772;8.754;2022-09-09T05:12:40;1.60;;;1.10;;
16510;SDS011;8368;48.772;8.754;2022-09-09T05:15:05;2.93;;;1.37;;
16510;SDS011;8368;48.772;8.754;2022-09-09T05:17:32;2.43;;;1.20;;
16510;SDS011;8368;48.772;8.754;2022-09-09T05:19:58;8.13;;;1.70;;
16510;SDS011;8368;48.772;8.754;2022-09-09T05:22:24;2.73;;;1.07;;
16510;SDS011;8368;48.772;8.754;2022-09-09T05:24:49;4.87;;;1.60;;
16510;SDS011;8368;48.772;8.754;2022-09-09T05:27:18;5.83;;;1.43;;
16510;SDS011;8368;48.772;8.754;2022-09-09T05:29:47;2.63;;;1.40;;
16510;SDS011;8368;48.772;8.754;2022-09-09T05:32:12;2.83;;;1.03;;
16510;SDS011;8368;48.772;8.754;2022-09-09T05:34:40;1.77;;;1.35;;
16510;SDS011;8368;48.772;8.754;2022-09-09T05:37:06;2.83;;;1.20;;
16510;SDS011;8368;48.772;8.754;2022-09-09T05:39:32;3.53;;;1.13;;
16510;SDS011;8368;48.772;8.754;2022-09-09T05:41:59;4.28;;;1.50;;
16510;SDS011;8368;48.772;8.754;2022-09-09T05:44:24;2.47;;;1.13;;
16510;SDS011;8368;48.772;8.754;2022-09-09T05:46:52;1.43;;;1.00;;
16510;SDS011;8368;48.772;8.754;2022-09-09T05:49:19;1.30;;;1.20;;
16510;SDS011;8368;48.772;8.754;2022-09-09T05:51:44;2.22;;;0.98;;
16510;SDS011;8368;48.772;8.754;2022-09-09T05:54:10;2.10;;;1.25;;
16510;SDS011;8368;48.772;8.754;2022-09-09T05:56:36;3.33;;;1.27;;
16510;SDS011;8368;48.772;8.754;2022-09-09T05:59:02;1.77;;;1.10;;
16510;SDS011;8368;48.772;8.754;2022-09-09T06:01:29;5.18;;;1.27;;
16510;SDS011;8368;48.772;8.754;2022-09-09T06:03:56;3.07;;;1.00;;
16510;SDS011;8368;48.772;8.754;2022-09-09T06:06:25;3.37;;;1.20;;
16510;SDS011;8368;48.772;8.754;2022-09-09T06:09:02;1.40;;;1.30;;
16510;SDS011;8368;48.772;8.754;2022-09-09T06:11:31;2.13;;;1.55;;
16510;SDS011;8368;48.772;8.754;2022-09-09T06:13:57;4.20;;;1.50;;
16510;SDS011;8368;48.772;8.754;2022-09-09T06:16:24;1.87;;;1.77;;
16510;SDS011;8368;48.772;8.754;2022-09-09T06:18:51;1.87;;;1.10;;
16510;SDS011;8368;48.772;8.754;2022-09-09T06:21:28;2.17;;;1.30;;
16510;SDS011;8368;48.772;8.754;2022-09-09T06:23:56;1.85;;;1.17;;
16510;SDS011;8368;48.772;8.754;2022-09-09T06:26:22;1.23;;;1.10;;
16510;SDS011;8368;48.772;8.754;2022-09-09T06:28:50;1.58;;;1.27;;
16510;SDS011;8368;48.772;8.754;2022-09-09T06:31:18;3.67;;;1.58;;
16510;SDS011;8368;48.772;8.754;2022-09-09T06:33:49;4.63;;;1.40;;
16510;SDS011;8368;48.772;8.754;2022-09-09T06:36:17;2.90;;;1.02;;
16510;SDS011;8368;48.772;8.754;2022-09-09T06:38:44;2.20;;;1.13;;
16510;SDS011;8368;48.772;8.754;2022-09-09T06:41:11;3.55;;;1.20;;
16510;SDS011;8368;48.772;8.754;2022-09-09T06:43:38;3.33;;;1.08;;
16510;SDS011;8368;48.772;8.754;2022-09-09T06:46:08;1.45;;;1.27;;
16510;SDS011;8368;48.772;8.754;2022-09-09T06:48:39;2.60;;;1.13;;
16510;SDS011;8368;48.772;8.754;2022-09-09T06:51:07;4.13;;;1.40;;
16510;SDS011;8368;48.772;8.754;2022-09-09T06:53:36;2.47;;;1.33;;
16510;SDS011;8368;48.772;8.754;2022-09-09T06:56:25;2.03;;;1.15;;
16510;SDS011;8368;48.772;8.754;2022-09-09T06:58:51;2.17;;;1.70;;
16510;SDS011;8368;48.772;8.754;2022-09-09T07:01:18;1.38;;;1.08;;
16510;SDS011;8368;48.772;8.754;2022-09-09T07:03:45;1.80;;;1.30;;
16510;SDS011;8368;48.772;8.754;2022-09-09T07:06:14;1.00;;;1.00;;
16510;SDS011;8368;48.772;8.754;2022-09-09T07:08:47;2.35;;;1.20;;
16510;SDS011;8368;48.772;8.754;2022-09-09T07:11:14;2.65;;;1.30;;
16510;SDS011;8368;48.772;8.754;2022-09-09T07:13:39;1.75;;;1.42;;
16510;SDS011;8368;48.772;8.754;2022-09-09T07:16:06;1.83;;;1.30;;
16510;SDS011;8368;48.772;8.754;2022-09-09T07:18:42;1.65;;;1.23;;
16510;SDS011;8368;48.772;8.754;2022-09-09T07:21:12;2.00;;;1.02;;
16510;SDS011;8368;48.772;8.754;2022-09-09T07:23:39;1.50;;;1.38;;
16510;SDS011;8368;48.772;8.754;2022-09-09T07:26:13;2.17;;;1.25;;
16510;SDS011;8368;48.772;8.754;2022-09-09T07:28:40;1.13;;;1.05;;
16510;SDS011;8368;48.772;8.754;2022-09-09T07:31:06;2.35;;;1.10;;
16510;SDS011;8368;48.772;8.754;2022-09-09T07:33:38;3.30;;;1.20;;
16510;SDS011;8368;48.772;8.754;2022-09-09T07:38:29;1.95;;;1.10;;
16510;SDS011;8368;48.772;8.754;2022-09-09T07:41:05;2.67;;;1.23;;
16510;SDS011;8368;48.772;8.754;2022-09-09T07:43:36;1.25;;;1.00;;
16510;SDS011;8368;48.772;8.754;2022-09-09T07:46:03;1.77;;;1.02;;
16510;SDS011;8368;48.772;8.754;2022-09-09T07:48:29;1.95;;;1.20;;
16510;SDS011;8368;48.772;8.754;2022-09-09T07:51:08;2.70;;;1.35;;
16510;SDS011;8368;48.772;8.754;2022-09-09T07:53:36;1.40;;;1.30;;
16510;SDS011;8368;48.772;8.754;2022-09-09T07:56:06;3.17;;;1.27;;
16510;SDS011;8368;48.772;8.754;2022-09-09T07:58:34;2.60;;;1.08;;
16510;SDS011;8368;48.772;8.754;2022-09-09T08:01:11;3.58;;;1.30;;
16510;SDS011;8368;48.772;8.754;2022-09-09T08:03:38;1.40;;;1.20;;
16510;SDS011;8368;48.772;8.754;2022-09-09T08:06:05;2.35;;;1.00;;
16510;SDS011;8368;48.772;8.754;2022-09-09T08:08:33;3.35;;;1.70;;
16510;SDS011;8368;48.772;8.754;2022-09-09T08:11:12;1.33;;;1.08;;
16510;SDS011;8368;48.772;8.754;2022-09-09T08:13:40;2.28;;;1.20;;
16510;SDS011;8368;48.772;8.754;2022-09-09T08:16:10;1.67;;;1.10;;
16510;SDS011;8368;48.772;8.754;2022-09-09T08:18:38;1.77;;;1.08;;
16510;SDS011;8368;48.772;8.754;2022-09-09T08:21:05;3.47;;;1.30;;
16510;SDS011;8368;48.772;8.754;2022-09-09T08:23:42;3.40;;;1.00;;
16510;SDS011;8368;48.772;8.754;2022-09-09T08:26:10;2.33;;;0.88;;
16510;SDS011;8368;48.772;8.754;2022-09-09T08:28:38;1.88;;;1.10;;
16510;SDS011;8368;48.772;8.754;2022-09-09T08:31:05;2.22;;;1.13;;
16510;SDS011;8368;48.772;8.754;2022-09-09T08:33:38;1.05;;;0.82;;
16510;SDS011;8368;48.772;8.754;2022-09-09T08:36:06;1.02;;;0.95;;
16510;SDS011;8368;48.772;8.754;2022-09-09T08:38:33;3.88;;;0.90;;
16510;SDS011;8368;48.772;8.754;2022-09-09T08:41:37;3.88;;;1.00;;
16510;SDS011;8368;48.772;8.754;2022-09-09T08:47:12;1.65;;;1.25;;
16510;SDS011;8368;48.772;8.754;2022-09-09T08:52:30;2.85;;;1.08;;
16510;SDS011;8368;48.772;8.754;2022-09-09T08:55:05;3.05;;;1.00;;
16510;SDS011;8368;48.772;8.754;2022-09-09T08:57:38;2.75;;;1.33;;
16510;SDS011;8368;48.772;8.754;2022-09-09T09:00:04;1.80;;;1.00;;
16510;SDS011;8368;48.772;8.754;2022-09-09T09:05:30;3.33;;;1.08;;
16510;SDS011;8368;48.772;8.754;2022-09-09T09:10:58;1.45;;;1.02;;
16510;SDS011;8368;48.772;8.754;2022-09-09T09:16:18;2.65;;;0.90;;
16510;SDS011;8368;48.772;8.754;2022-09-09T09:18:55;6.35;;;1.73;;
16510;SDS011;8368;48.772;8.754;2022-09-09T09:21:26;2.03;;;1.30;;
16510;SDS011;8368;48.772;8.754;2022-09-09T09:24:01;5.20;;;1.20;;
16510;SDS011;8368;48.772;8.754;2022-09-09T09:26:33;1.30;;;1.00;;
16510;SDS011;8368;48.772;8.754;2022-09-09T09:29:00;1.73;;;1.10;;
16510;SDS011;8368;48.772;8.754;2022-09-09T09:31:37;2.28;;;1.00;;
16510;SDS011;8368;48.772;8.754;2022-09-09T09:34:03;3.50;;;1.42;;
16510;SDS011;8368;48.772;8.754;2022-09-09T09:36:39;2.88;;;1.10;;
16510;SDS011;8368;48.772;8.754;2022-09-09T09:39:07;2.33;;;1.02;;
16510;SDS011;8368;48.772;8.754;2022-09-09T09:41:38;3.90;;;1.20;;
16510;SDS011;8368;48.772;8.754;2022-09-09T09:44:18;2.40;;;0.90;;
16510;SDS011;8368;48.772;8.754;2022-09-09T09:47:05;1.17;;;1.02;;
16510;SDS011;8368;48.772;8.754;2022-09-09T09:49:51;1.85;;;0.93;;
16510;SDS011;8368;48.772;8.754;2022-09-09T09:52:21;2.55;;;1.00;;
16510;SDS011;8368;48.772;8.754;2022-09-09T09:54:49;1.88;;;0.90;;
16510;SDS011;8368;48.772;8.754;2022-09-09T09:57:16;1.48;;;1.38;;
16510;SDS011;8368;48.772;8.754;2022-09-09T09:59:43;1.33;;;1.10;;
16510;SDS011;8368;48.772;8.754;2022-09-09T10:02:14;0.93;;;0.80;;
16510;SDS011;8368;48.772;8.754;2022-09-09T10:05:08;1.88;;;0.90;;
16510;SDS011;8368;48.772;8.754;2022-09-09T10:07:42;4.50;;;1.00;;
16510;SDS011;8368;48.772;8.754;2022-09-09T10:10:12;5.07;;;0.95;;
16510;SDS011;8368;48.772;8.754;2022-09-09T10:13:03;1.92;;;1.00;;
16510;SDS011;8368;48.772;8.754;2022-09-09T10:18:46;1.60;;;0.88;;
16510;SDS011;8368;48.772;8.754;2022-09-09T10:21:30;2.00;;;1.20;;
16510;SDS011;8368;48.772;8.754;2022-09-09T10:24:27;1.92;;;0.95;;
16510;SDS011;8368;48.772;8.754;2022-09-09T10:40:59;0.80;;;0.77;;
16510;SDS011;8368;48.772;8.754;2022-09-09T10:46:39;2.15;;;0.90;;
16510;SDS011;8368;48.772;8.754;2022-09-09T10:52:21;2.75;;;0.73;;
16510;SDS011;8368;48.772;8.754;2022-09-09T10:55:02;1.10;;;0.70;;
16510;SDS011;8368;48.772;8.754;2022-09-09T10:57:37;1.85;;;0.85;;
16510;SDS011;8368;48.772;8.754;2022-09-09T11:00:32;0.93;;;0.80;;
16510;SDS011;8368;48.772;8.754;2022-09-09T11:03:04;3.00;;;1.10;;
16510;SDS011;8368;48.772;8.754;2022-09-09T11:08:12;1.55;;;0.80;;
16510;SDS011;8368;48.772;8.754;2022-09-09T11:13:28;1.08;;;0.75;;
16510;SDS011;8368;48.772;8.754;2022-09-09T11:18:48;2.08;;;1.00;;
16510;SDS011;8368;48.772;8.754;2022-09-09T11:21:17;2.10;;;0.80;;
16510;SDS011;8368;48.772;8.754;2022-09-09T11:23:52;1.80;;;0.73;;
16510;SDS011;8368;48.772;8.754;2022-09-09T11:26:29;1.65;;;0.90;;
16510;SDS011;8368;48.772;8.754;2022-09-09T11:31:45;3.17;;;1.10;;
16510;SDS011;8368;48.772;8.754;2022-09-09T11:42:47;1.65;;;0.90;;
16510;SDS011;8368;48.772;8.754;2022-09-09T11:45:22;1.88;;;0.98;;
16510;SDS011;8368;48.772;8.754;2022-09-09T11:47:51;2.35;;;1.00;;
16510;SDS011;8368;48.772;8.754;2022-09-09T11:52:46;1.48;;;0.70;;
16510;SDS011;8368;48.772;8.754;2022-09-09T11:57:59;0.98;;;0.75;;
16510;SDS011;8368;48.772;8.754;2022-09-09T12:03:09;1.88;;;0.90;;
16510;SDS011;8368;48.772;8.754;2022-09-09T12:05:57;2.53;;;1.10;;
16510;SDS011;8368;48.772;8.754;2022-09-09T12:08:27;2.72;;;0.90;;
16510;SDS011;8368;48.772;8.754;2022-09-09T12:10:55;1.60;;;0.73;;
16510;SDS011;8368;48.772;8.754;2022-09-09T12:13:22;2.08;;;0.80;;
16510;SDS011;8368;48.772;8.754;2022-09-09T12:15:50;0.98;;;0.90;;
16510;SDS011;8368;48.772;8.754;2022-09-09T12:18:39;1.17;;;0.60;;
16510;SDS011;8368;48.772;8.754;2022-09-09T12:21:32;1.02;;;0.77;;
16510;SDS011;8368;48.772;8.754;2022-09-09T12:24:10;0.60;;;0.60;;
16510;SDS011;8368;48.772;8.754;2022-09-09T12:26:42;0.63;;;0.60;;
16510;SDS011;8368;48.772;8.754;2022-09-09T12:37:06;2.47;;;0.90;;
16510;SDS011;8368;48.772;8.754;2022-09-09T12:39:37;3.63;;;1.05;;
16510;SDS011;8368;48.772;8.754;2022-09-09T12:42:15;0.50;;;0.50;;
16510;SDS011;8368;48.772;8.754;2022-09-09T12:44:50;0.60;;;0.60;;
16510;SDS011;8368;48.772;8.754;2022-09-09T12:47:24;0.70;;;0.70;;
16510;SDS011;8368;48.772;8.754;2022-09-09T12:49:51;2.83;;;0.80;;
16510;SDS011;8368;48.772;8.754;2022-09-09T12:52:50;0.88;;;0.80;;
16510;SDS011;8368;48.772;8.754;2022-09-09T12:55:15;0.80;;;0.80;;
16510;SDS011;8368;48.772;8.754;2022-09-09T12:57:46;1.08;;;0.70;;
16510;SDS011;8368;48.772;8.754;2022-09-09T13:00:22;1.48;;;0.70;;
16510;SDS011;8368;48.772;8.754;2022-09-09T13:02:53;1.45;;;0.63;;
16510;SDS011;8368;48.772;8.754;2022-09-09T13:05:28;1.08;;;0.70;;
16510;SDS011;8368;48.772;8.754;2022-09-09T13:08:10;0.70;;;0.70;;
16510;SDS011;8368;48.772;8.754;2022-09-09T13:10:39;3.97;;;1.13;;
16510;SDS011;8368;48.772;8.754;2022-09-09T13:13:14;1.75;;;0.80;;
16510;SDS011;8368;48.772;8.754;2022-09-09T13:15:48;2.20;;;0.80;;
16510;SDS011;8368;48.772;8.754;2022-09-09T13:18:35;1.73;;;0.88;;
16510;SDS011;8368;48.772;8.754;2022-09-09T13:21:04;2.80;;;0.80;;
16510;SDS011;8368;48.772;8.754;2022-09-09T13:23:31;0.88;;;0.73;;
16510;SDS011;8368;48.772;8.754;2022-09-09T13:26:04;2.50;;;0.77;;
16510;SDS011;8368;48.772;8.754;2022-09-09T13:28:32;1.63;;;0.73;;
16510;SDS011;8368;48.772;8.754;2022-09-09T13:31:00;1.42;;;0.82;;
16510;SDS011;8368;48.772;8.754;2022-09-09T13:33:32;1.17;;;0.70;;
16510;SDS011;8368;48.772;8.754;2022-09-09T13:35:59;0.85;;;0.70;;
16510;SDS011;8368;48.772;8.754;2022-09-09T13:38:25;1.20;;;0.50;;
16510;SDS011;8368;48.772;8.754;2022-09-09T13:40:57;1.92;;;0.85;;
16510;SDS011;8368;48.772;8.754;2022-09-09T13:43:34;1.02;;;0.57;;
16510;SDS011;8368;48.772;8.754;2022-09-09T13:46:25;2.72;;;0.70;;
16510;SDS011;8368;48.772;8.754;2022-09-09T13:48:59;1.77;;;0.70;;
16510;SDS011;8368;48.772;8.754;2022-09-09T13:51:45;1.17;;;0.68;;
16510;SDS011;8368;48.772;8.754;2022-09-09T13:54:15;3.65;;;0.70;;
16510;SDS011;8368;48.772;8.754;2022-09-09T13:56:42;1.42;;;0.80;;
16510;SDS011;8368;48.772;8.754;2022-09-09T13:59:09;0.70;;;0.70;;
16510;SDS011;8368;48.772;8.754;2022-09-09T14:01:37;0.70;;;0.65;;
16510;SDS011;8368;48.772;8.754;2022-09-09T14:04:03;0.70;;;0.70;;
16510;SDS011;8368;48.772;8.754;2022-09-09T14:06:31;1.83;;;0.70;;
16510;SDS011;8368;48.772;8.754;2022-09-09T14:08:57;1.92;;;0.80;;
16510;SDS011;8368;48.772;8.754;2022-09-09T14:11:23;1.30;;;0.60;;
16510;SDS011;8368;48.772;8.754;2022-09-09T14:13:49;1.05;;;0.68;;
16510;SDS011;8368;48.772;8.754;2022-09-09T14:16:15;1.17;;;0.60;;
16510;SDS011;8368;48.772;8.754;2022-09-09T14:18:42;0.68;;;0.60;;
16510;SDS011;8368;48.772;8.754;2022-09-09T14:21:08;0.57;;;0.50;;
16510;SDS011;8368;48.772;8.754;2022-09-09T14:23:34;2.33;;;0.70;;
16510;SDS011;8368;48.772;8.754;2022-09-09T14:26:00;0.60;;;0.60;;
16510;SDS011;8368;48.772;8.754;2022-09-09T14:28:26;0.98;;;0.60;;
16510;SDS011;8368;48.772;8.754;2022-09-09T14:30:53;4.13;;;0.80;;
16510;SDS011;8368;48.772;8.754;2022-09-09T14:33:18;1.00;;;0.65;;
16510;SDS011;8368;48.772;8.754;2022-09-09T14:35:44;0.77;;;0.50;;
16510;SDS011;8368;48.772;8.754;2022-09-09T14:38:10;1.25;;;0.50;;
16510;SDS011;8368;48.772;8.754;2022-09-09T14:40:36;1.50;;;0.65;;
16510;SDS011;8368;48.772;8.754;2022-09-09T14:43:02;1.88;;;0.57;;
16510;SDS011;8368;48.772;8.754;2022-09-09T14:45:28;0.85;;;0.60;;
16510;SDS011;8368;48.772;8.754;2022-09-09T14:47:54;0.93;;;0.50;;
16510;SDS011;8368;48.772;8.754;2022-09-09T14:50:20;1.30;;;0.70;;
16510;SDS011;8368;48.772;8.754;2022-09-09T14:52:47;0.90;;;0.52;;
16510;SDS011;8368;48.772;8.754;2022-09-09T14:55:13;0.65;;;0.63;;
16510;SDS011;8368;48.772;8.754;2022-09-09T14:57:40;1.75;;;0.60;;
16510;SDS011;8368;48.772;8.754;2022-09-09T15:00:06;1.23;;;0.75;;
16510;SDS011;8368;48.772;8.754;2022-09-09T15:02:33;1.90;;;0.82;;
16510;SDS011;8368;48.772;8.754;2022-09-09T15:04:59;2.45;;;0.70;;
16510;SDS011;8368;48.772;8.754;2022-09-09T15:07:25;3.03;;;0.70;;
16510;SDS011;8368;48.772;8.754;2022-09-09T15:09:51;2.22;;;0.80;;
16510;SDS011;8368;48.772;8.754;2022-09-09T15:12:17;1.88;;;0.60;;
16510;SDS011;8368;48.772;8.754;2022-09-09T15:14:43;0.80;;;0.70;;
16510;SDS011;8368;48.772;8.754;2022-09-09T15:17:09;1.05;;;0.77;;
16510;SDS011;8368;48.772;8.754;2022-09-09T15:19:36;1.58;;;1.48;;
16510;SDS011;8368;48.772;8.754;2022-09-09T15:22:03;2.22;;;0.95;;
16510;SDS011;8368;48.772;8.754;2022-09-09T15:24:30;3.80;;;1.00;;
16510;SDS011;8368;48.772;8.754;2022-09-09T15:26:56;0.82;;;0.82;;
16510;SDS011;8368;48.772;8.754;2022-09-09T15:29:22;1.75;;;0.80;;
16510;SDS011;8368;48.772;8.754;2022-09-09T15:31:48;0.93;;;0.80;;
16510;SDS011;8368;48.772;8.754;2022-09-09T15:34:14;1.10;;;0.70;;
16510;SDS011;8368;48.772;8.754;2022-09-09T15:36:40;3.20;;;1.00;;
16510;SDS011;8368;48.772;8.754;2022-09-09T15:39:11;2.97;;;0.73;;
16510;SDS011;8368;48.772;8.754;2022-09-09T15:41:42;1.98;;;0.80;;
16510;SDS011;8368;48.772;8.754;2022-09-09T15:44:08;4.30;;;1.10;;
16510;SDS011;8368;48.772;8.754;2022-09-09T15:46:39;2.40;;;0.93;;
16510;SDS011;8368;48.772;8.754;2022-09-09T15:49:09;0.95;;;0.80;;
16510;SDS011;8368;48.772;8.754;2022-09-09T15:51:47;2.30;;;0.80;;
16510;SDS011;8368;48.772;8.754;2022-09-09T15:54:23;0.47;;;0.40;;
16510;SDS011;8368;48.772;8.754;2022-09-09T15:56:50;1.15;;;0.50;;
16510;SDS011;8368;48.772;8.754;2022-09-09T15:59:19;0.30;;;0.30;;
16510;SDS011;8368;48.772;8.754;2022-09-09T16:01:45;0.57;;;0.50;;
16510;SDS011;8368;48.772;8.754;2022-09-09T16:04:11;1.00;;;0.30;;
16510;SDS011;8368;48.772;8.754;2022-09-09T16:06:37;0.40;;;0.40;;
16510;SDS011;8368;48.772;8.754;2022-09-09T16:09:04;0.30;;;0.30;;
16510;SDS011;8368;48.772;8.754;2022-09-09T16:11:32;1.30;;;0.70;;
16510;SDS011;8368;48.772;8.754;2022-09-09T16:14:00;0.40;;;0.40;;
16510;SDS011;8368;48.772;8.754;2022-09-09T16:16:27;0.80;;;0.50;;
16510;SDS011;8368;48.772;8.754;2022-09-09T16:18:54;0.40;;;0.40;;
16510;SDS011;8368;48.772;8.754;2022-09-09T16:23:54;0.88;;;0.50;;
16510;SDS011;8368;48.772;8.754;2022-09-09T16:26:20;0.63;;;0.43;;
16510;SDS011;8368;48.772;8.754;2022-09-09T16:28:45;1.02;;;0.60;;
16510;SDS011;8368;48.772;8.754;2022-09-09T16:31:21;0.40;;;0.40;;
16510;SDS011;8368;48.772;8.754;2022-09-09T16:33:48;1.83;;;0.60;;
16510;SDS011;8368;48.772;8.754;2022-09-09T16:36:16;2.08;;;0.60;;
16510;SDS011;8368;48.772;8.754;2022-09-09T16:38:44;2.30;;;0.50;;
16510;SDS011;8368;48.772;8.754;2022-09-09T16:41:11;0.40;;;0.40;;
16510;SDS011;8368;48.772;8.754;2022-09-09T16:43:38;2.08;;;0.82;;
16510;SDS011;8368;48.772;8.754;2022-09-09T16:46:15;2.28;;;0.65;;
16510;SDS011;8368;48.772;8.754;2022-09-09T16:48:43;0.65;;;0.65;;
16510;SDS011;8368;48.772;8.754;2022-09-09T16:51:43;0.85;;;0.85;;
16510;SDS011;8368;48.772;8.754;2022-09-09T16:54:04;1.48;;;0.68;;
16510;SDS011;8368;48.772;8.754;2022-09-09T16:56:32;0.80;;;0.80;;
16510;SDS011;8368;48.772;8.754;2022-09-09T16:59:01;2.72;;;1.00;;
16510;SDS011;8368;48.772;8.754;2022-09-09T17:01:31;1.20;;;0.57;;
16510;SDS011;8368;48.772;8.754;2022-09-09T17:04:00;1.10;;;0.85;;
16510;SDS011;8368;48.772;8.754;2022-09-09T17:06:28;2.15;;;0.75;;
16510;SDS011;8368;48.772;8.754;2022-09-09T17:08:55;2.03;;;0.75;;
16510;SDS011;8368;48.772;8.754;2022-09-09T17:11:22;0.80;;;0.80;;
16510;SDS011;8368;48.772;8.754;2022-09-09T17:13:48;0.98;;;0.80;;
16510;SDS011;8368;48.772;8.754;2022-09-09T17:16:16;1.35;;;0.82;;